Time;durP1;ratioP1;P1;durP2;ratioP2;P2;SDS_P1;SDS_P2;PMS_P1;PMS_P2;Temp;Humidity;BMP_temperature;BMP_pressure;BME280_temperature;BME280_humidity;BME280_pressure;Samples;Min_cycle;Max_cycle;Signal;HPM_P1;HPM_P2
2022/05/22 00:01:45;;;;;;;3.10;0.85;;;;;;;8.79;96.14;98659.56;5048561;28;20075;-71
2022/05/22 00:04:11;;;;;;;1.15;0.75;;;;;;;8.87;95.88;98667.34;5056308;28;20028;-71
2022/05/22 00:06:37;;;;;;;3.80;1.20;;;;;;;8.78;95.85;98660.47;5064196;28;20032;-71
2022/05/22 00:09:03;;;;;;;0.68;0.60;;;;;;;8.78;95.93;98660.47;5046117;28;20248;-71
2022/05/22 00:11:29;;;;;;;3.72;1.02;;;;;;;8.72;95.00;98652.66;5045237;28;20073;-71
2022/05/22 00:13:55;;;;;;;1.10;0.82;;;;;;;8.49;95.97;98644.16;5046176;28;20025;-71
2022/05/22 00:19:05;;;;;;;2.28;0.90;;;;;;;8.48;98.08;98642.44;5062860;28;20052;-71
2022/05/22 00:21:31;;;;;;;2.30;0.90;;;;;;;8.44;95.74;98645.97;5064403;28;20025;-71
2022/05/22 00:23:57;;;;;;;6.57;1.00;;;;;;;8.41;96.55;98639.88;5056184;28;20021;-71
2022/05/22 00:26:22;;;;;;;0.95;0.80;;;;;;;8.32;97.17;98633.00;5051689;28;20032;-71
2022/05/22 00:28:48;;;;;;;1.05;0.75;;;;;;;8.49;97.57;98641.53;5044828;28;20260;-71
2022/05/22 00:31:13;;;;;;;1.02;0.93;;;;;;;8.54;96.66;98636.25;5044858;28;20025;-71
2022/05/22 00:33:39;;;;;;;0.90;0.80;;;;;;;8.46;96.54;98633.72;5057649;28;20021;-71
2022/05/22 00:36:05;;;;;;;0.75;0.70;;;;;;;8.40;96.28;98641.66;5049920;28;20232;-71
2022/05/22 00:38:31;;;;;;;2.67;0.77;;;;;;;8.49;96.77;98643.31;5045493;28;20025;-71
2022/05/22 00:40:56;;;;;;;2.10;0.90;;;;;;;8.43;95.69;98639.00;5060236;28;20385;-71
2022/05/22 00:43:29;;;;;;;0.88;0.77;;;;;;;8.14;96.02;98633.13;5045504;28;20029;-71
2022/05/22 00:45:55;;;;;;;6.50;1.00;;;;;;;8.30;96.73;98637.41;5049641;28;20033;-71
2022/05/22 00:48:20;;;;;;;1.15;0.98;;;;;;;8.27;95.87;98642.69;5063275;28;20035;-71
2022/05/22 00:50:45;;;;;;;0.82;0.75;;;;;;;8.19;95.43;98633.97;5053998;28;20033;-71
2022/05/22 00:53:11;;;;;;;0.73;0.70;;;;;;;8.02;95.61;98630.66;5063421;28;20330;-71
2022/05/22 00:55:37;;;;;;;1.15;1.00;;;;;;;8.04;96.78;98628.88;5063174;28;20029;-71
2022/05/22 00:58:09;;;;;;;1.45;1.10;;;;;;;8.01;96.37;98628.91;5063573;28;20024;-71
2022/05/22 01:00:35;;;;;;;1.52;1.10;;;;;;;7.95;97.02;98634.22;5061864;28;20267;-71
2022/05/22 01:05:51;;;;;;;1.83;1.23;;;;;;;7.88;98.45;98632.50;5050325;28;20390;-71
2022/05/22 01:08:17;;;;;;;1.17;0.93;;;;;;;7.85;98.01;98629.91;5061734;28;20308;-71
2022/05/22 01:11:12;;;;;;;1.83;1.15;;;;;;;7.87;97.28;98638.66;5063357;28;20032;-71
2022/05/22 01:13:48;;;;;;;3.35;1.00;;;;;;;7.85;96.02;98637.78;5043194;28;20041;-71
2022/05/22 01:16:13;;;;;;;1.20;0.98;;;;;;;7.79;96.21;98643.06;5045036;28;20033;-71
2022/05/22 01:18:50;;;;;;;0.80;0.80;;;;;;;7.68;96.32;98628.31;5043887;28;20028;-71
2022/05/22 01:21:29;;;;;;;1.80;1.00;;;;;;;7.59;96.61;98631.88;5043817;28;20025;-72
2022/05/22 01:23:55;;;;;;;1.25;0.80;;;;;;;7.62;98.25;98633.59;5054974;28;20046;-72
2022/05/22 01:26:22;;;;;;;1.15;1.00;;;;;;;7.77;97.24;98629.13;5054658;28;20243;-72
2022/05/22 01:28:48;;;;;;;1.17;0.80;;;;;;;7.83;97.70;98634.31;5062926;28;20025;-72
2022/05/22 01:31:14;;;;;;;1.13;0.80;;;;;;;7.83;98.13;98628.19;5063163;28;20106;-72
2022/05/22 01:33:40;;;;;;;0.70;0.70;;;;;;;7.86;97.95;98613.34;5062777;28;20052;-72
2022/05/22 01:36:07;;;;;;;1.38;0.98;;;;;;;7.85;97.96;98610.72;5060446;28;20120;-72
2022/05/22 01:38:33;;;;;;;2.33;1.10;;;;;;;7.77;98.43;98607.28;5043685;28;20337;-72
2022/05/22 01:40:59;;;;;;;1.33;0.90;;;;;;;7.94;99.22;98610.66;5050979;28;20029;-72
2022/05/22 01:43:25;;;;;;;1.10;1.00;;;;;;;8.04;97.37;98610.53;5061617;28;20027;-72
2022/05/22 01:45:51;;;;;;;4.82;0.80;;;;;;;8.12;97.49;98606.09;5062966;28;20029;-72
2022/05/22 01:48:17;;;;;;;6.22;1.08;;;;;;;7.90;97.67;98607.19;5062478;28;20062;-72
2022/05/22 01:50:44;;;;;;;0.60;0.60;;;;;;;8.07;97.31;98607.88;5051786;28;20029;-71
2022/05/22 01:53:10;;;;;;;0.63;0.63;;;;;;;8.08;97.19;98604.38;5050617;28;20099;-72
2022/05/22 01:55:36;;;;;;;1.52;0.90;;;;;;;8.14;97.33;98606.06;5064849;28;20050;-72
2022/05/22 01:58:02;;;;;;;1.65;0.95;;;;;;;8.15;97.06;98606.06;5065310;28;20044;-72
2022/05/22 02:00:30;;;;;;;1.00;0.90;;;;;;;8.17;96.92;98599.03;5063843;28;20044;-72
2022/05/22 02:02:56;;;;;;;1.05;0.70;;;;;;;8.07;96.63;98597.38;5057953;28;20031;-72
2022/05/22 02:05:22;;;;;;;1.00;0.90;;;;;;;7.92;97.21;98597.56;5047185;28;20127;-72
2022/05/22 02:10:34;;;;;;;1.67;0.85;;;;;;;8.09;97.60;98606.13;5047064;28;20024;-72
2022/05/22 02:13:00;;;;;;;1.63;0.80;;;;;;;7.94;98.38;98595.78;5062448;28;20029;-72
2022/05/22 02:15:26;;;;;;;1.17;0.88;;;;;;;7.81;96.94;98583.66;5046945;28;20025;-72
2022/05/22 02:17:51;;;;;;;1.30;1.00;;;;;;;7.90;97.88;98588.84;5058594;28;20092;-71
2022/05/22 02:20:18;;;;;;;0.90;0.75;;;;;;;7.80;97.60;98587.19;5066035;28;20072;-72
2022/05/22 02:22:49;;;;;;;1.10;0.90;;;;;;;7.77;96.96;98581.97;5066265;28;20096;-72
2022/05/22 02:25:22;;;;;;;1.00;0.90;;;;;;;7.77;96.57;98581.97;5064781;28;20051;-72
2022/05/22 02:27:47;;;;;;;;;;;;;;;7.58;97.42;98579.50;5066624;28;20029;-72
2022/05/22 02:30:17;;;;;;;1.55;0.70;;;;;;;7.64;96.95;98569.00;5050415;28;19905;-72
2022/05/22 02:32:42;;;;;;;1.63;1.20;;;;;;;7.67;96.74;98564.59;5058308;28;20032;-72
2022/05/22 02:35:10;;;;;;;1.35;0.90;;;;;;;7.71;96.69;98565.44;5066054;28;20025;-72
2022/05/22 02:37:47;;;;;;;1.25;0.88;;;;;;;7.59;97.16;98555.09;5063671;28;20272;-72
2022/05/22 02:40:14;;;;;;;0.65;0.65;;;;;;;7.48;97.59;98555.16;5046625;28;20088;-72
2022/05/22 02:42:41;;;;;;;1.35;0.98;;;;;;;7.54;98.22;98567.34;5050530;28;20029;-72
2022/05/22 02:45:08;;;;;;;2.38;1.38;;;;;;;7.44;98.25;98560.44;5047682;28;20312;-72
2022/05/22 02:47:34;;;;;;;0.75;0.70;;;;;;;7.54;97.65;98562.97;5063645;28;20039;-72
2022/05/22 02:50:00;;;;;;;4.03;0.90;;;;;;;7.54;97.08;98552.50;5064680;28;20222;-72
2022/05/22 02:52:25;;;;;;;1.60;0.73;;;;;;;7.39;97.12;98555.25;5047569;28;20036;-72
2022/05/22 02:54:50;;;;;;;1.95;0.88;;;;;;;7.43;96.33;98559.56;5060206;28;20048;-72
2022/05/22 02:57:21;;;;;;;1.13;0.90;;;;;;;7.31;97.48;98559.66;5065550;28;20029;-72
2022/05/22 02:59:47;;;;;;;1.45;0.95;;;;;;;7.32;97.17;98540.47;5065907;28;20342;-72
2022/05/22 03:02:13;;;;;;;2.58;1.00;;;;;;;7.34;97.09;98554.41;5064237;28;20028;-72
2022/05/22 03:04:38;;;;;;;1.02;0.93;;;;;;;7.19;96.97;98538.84;5065311;28;20284;-72
2022/05/22 03:07:04;;;;;;;0.80;0.80;;;;;;;7.23;97.33;98537.03;5063315;28;20021;-72
2022/05/22 03:09:30;;;;;;;1.90;0.90;;;;;;;7.27;97.13;98544.84;5051569;28;20025;-72
2022/05/22 03:11:57;;;;;;;0.73;0.70;;;;;;;7.16;97.09;98531.00;5047221;28;20037;-72
2022/05/22 03:14:23;;;;;;;0.93;0.82;;;;;;;7.14;97.58;98537.97;5055287;28;20336;-72
2022/05/22 03:16:49;;;;;;;0.85;0.77;;;;;;;7.28;97.91;98537.88;5053913;28;20063;-72
2022/05/22 03:19:15;;;;;;;3.15;0.82;;;;;;;7.28;96.90;98538.72;5046179;28;20029;-72
2022/05/22 03:21:41;;;;;;;0.65;0.65;;;;;;;6.99;96.74;98535.47;5054572;28;20021;-72
2022/05/22 03:24:07;;;;;;;0.88;0.68;;;;;;;7.13;97.40;98541.50;5064891;28;20021;-72
2022/05/22 03:26:32;;;;;;;1.30;0.90;;;;;;;7.11;98.21;98540.63;5065224;28;20058;-72
2022/05/22 03:28:58;;;;;;;2.03;1.02;;;;;;;7.25;97.48;98538.78;5064845;28;20067;-72
2022/05/22 03:31:23;;;;;;;1.00;0.70;;;;;;;7.09;96.74;98541.53;5065223;28;20028;-72
2022/05/22 03:33:49;;;;;;;0.90;0.68;;;;;;;6.95;95.60;98532.88;5064968;28;20024;-72
2022/05/22 03:36:14;;;;;;;0.90;0.70;;;;;;;7.04;97.00;98541.56;5045532;28;20029;-72
2022/05/22 03:38:40;;;;;;;1.10;0.90;;;;;;;7.14;97.28;98532.75;5045547;28;20068;-72
2022/05/22 03:41:05;;;;;;;1.42;0.95;;;;;;;6.89;97.27;98520.72;5045471;28;20032;-72
2022/05/22 03:43:31;;;;;;;1.10;0.73;;;;;;;6.95;98.62;98528.53;5057531;28;20013;-72
2022/05/22 03:45:56;;;;;;;1.13;0.90;;;;;;;7.02;98.44;98527.59;5060521;28;20096;-72
2022/05/22 03:48:22;;;;;;;3.03;1.02;;;;;;;7.18;97.92;98525.75;5045345;28;20021;-72
2022/05/22 03:50:50;;;;;;;3.13;1.00;;;;;;;7.11;97.59;98514.44;5046493;28;20201;-72
2022/05/22 03:53:16;;;;;;;0.77;0.65;;;;;;;7.25;97.45;98517.84;5055680;28;20039;-72
2022/05/22 03:55:42;;;;;;;1.00;0.90;;;;;;;7.29;96.61;98514.31;5064998;28;20104;-72
2022/05/22 03:58:08;;;;;;;1.13;0.90;;;;;;;7.17;97.12;98514.41;5051868;28;20220;-72
2022/05/22 04:00:34;;;;;;;1.35;0.95;;;;;;;7.16;97.54;98511.81;5062201;28;20028;-72
2022/05/22 04:03:00;;;;;;;1.35;0.70;;;;;;;7.19;97.88;98511.78;5046514;28;20092;-72
2022/05/22 04:05:25;;;;;;;3.67;1.20;;;;;;;7.23;98.93;98509.13;5053513;28;20021;-72
2022/05/22 04:07:51;;;;;;;0.80;0.77;;;;;;;7.37;98.96;98507.25;5061073;28;20051;-72
2022/05/22 04:10:18;;;;;;;0.70;0.70;;;;;;;7.47;97.40;98503.66;5048178;28;20032;-72
2022/05/22 04:12:44;;;;;;;3.10;1.00;;;;;;;7.52;96.19;98507.13;5059291;28;20029;-72
2022/05/22 04:15:14;;;;;;;1.67;0.98;;;;;;;7.48;96.66;98507.16;5056987;28;20021;-72
2022/05/22 04:17:39;;;;;;;1.30;1.10;;;;;;;7.49;97.13;98507.16;5061740;28;20096;-72
2022/05/22 04:20:07;;;;;;;1.10;0.80;;;;;;;7.66;96.94;98505.22;5044769;28;20033;-72
2022/05/22 04:22:32;;;;;;;0.82;0.60;;;;;;;7.74;96.42;98503.41;5045232;28;20027;-72
2022/05/22 04:25:12;;;;;;;0.70;0.70;;;;;;;7.82;96.15;98501.56;5045723;28;20317;-72
2022/05/22 04:27:42;;;;;;;2.83;0.82;;;;;;;7.83;95.02;98494.56;5063020;28;20047;-72
2022/05/22 04:30:17;;;;;;;1.48;0.80;;;;;;;7.89;95.36;98492.78;5045331;28;20092;-72
2022/05/22 04:32:44;;;;;;;0.80;0.80;;;;;;;7.81;95.58;98489.34;5045730;28;20021;-72
2022/05/22 04:35:09;;;;;;;1.05;0.75;;;;;;;7.97;95.94;98490.91;5045338;28;20021;-72
2022/05/22 04:37:34;;;;;;;0.85;0.80;;;;;;;8.16;95.00;98483.69;5045265;28;20100;-72
2022/05/22 04:40:00;;;;;;;0.75;0.70;;;;;;;8.15;94.87;98489.84;5045975;28;20048;-72
2022/05/22 04:42:25;;;;;;;0.55;0.40;;;;;;;8.29;94.65;98493.22;5063617;28;20021;-72
2022/05/22 04:44:51;;;;;;;0.88;0.80;;;;;;;8.50;93.98;98485.91;5054119;28;20028;-72
2022/05/22 04:47:16;;;;;;;1.17;0.90;;;;;;;8.88;92.33;98479.22;5045206;28;20254;-72
2022/05/22 04:49:42;;;;;;;0.90;0.80;;;;;;;9.04;90.53;98486.84;5045160;28;20041;-72
2022/05/22 04:52:07;;;;;;;0.50;0.50;;;;;;;9.26;90.53;98488.25;5045130;28;20037;-72
2022/05/22 04:54:33;;;;;;;1.10;0.70;;;;;;;9.43;90.30;98490.59;5044778;28;20339;-72
2022/05/22 04:56:59;;;;;;;2.30;0.88;;;;;;;9.65;89.49;98491.97;5053447;28;20039;-72
2022/05/22 04:59:24;;;;;;;0.93;0.60;;;;;;;9.98;89.11;98492.22;5064561;28;20025;-72
2022/05/22 05:01:50;;;;;;;0.85;0.70;;;;;;;10.34;87.65;98493.25;5064601;28;20029;-72
2022/05/22 05:04:15;;;;;;;1.25;0.75;;;;;;;10.94;85.52;98499.81;5063942;28;20032;-72
2022/05/22 05:06:41;;;;;;;0.95;0.68;;;;;;;11.42;83.52;98489.91;5064151;28;20044;-72
2022/05/22 05:09:06;;;;;;;0.98;0.80;;;;;;;11.64;81.34;98493.75;5047007;28;20025;-72
2022/05/22 05:11:32;;;;;;;1.17;0.70;;;;;;;11.97;81.30;98499.00;5056774;28;20082;-72
2022/05/22 05:13:57;;;;;;;2.38;0.98;;;;;;;12.49;80.30;98493.97;5057948;28;20041;-72
2022/05/22 05:16:23;;;;;;;3.47;0.95;;;;;;;12.55;79.79;98488.53;5049208;28;20029;-72
2022/05/22 05:18:48;;;;;;;1.10;0.70;;;;;;;12.97;79.01;98481.06;5063773;28;20028;-72
2022/05/22 05:21:15;;;;;;;1.23;0.70;;;;;;;13.70;77.12;98495.44;5064477;28;20025;-72
2022/05/22 05:23:41;;;;;;;1.42;0.80;;;;;;;14.10;73.96;98490.47;5064332;28;20032;-72
2022/05/22 05:26:07;;;;;;;1.02;0.70;;;;;;;14.47;72.94;98485.63;5064383;28;20028;-72
2022/05/22 05:28:33;;;;;;;2.03;1.00;;;;;;;14.89;71.82;98499.88;5049210;28;20041;-72
2022/05/22 05:30:59;;;;;;;2.17;1.00;;;;;;;14.90;72.67;98496.31;5056386;28;20035;-72
2022/05/22 05:33:24;;;;;;;0.80;0.80;;;;;;;15.44;71.57;98515.38;5056103;28;20036;-72
2022/05/22 05:35:50;;;;;;;1.98;1.00;;;;;;;15.50;71.73;98508.97;5055776;28;20277;-72
2022/05/22 05:38:16;;;;;;;3.50;0.90;;;;;;;15.68;71.32;98514.38;5068056;28;20052;-72
2022/05/22 05:40:42;;;;;;;6.60;1.02;;;;;;;15.43;72.32;98515.44;5067012;28;20021;-72
2022/05/22 05:43:08;;;;;;;1.23;0.90;;;;;;;15.98;72.25;98522.84;5049068;28;20333;-72
2022/05/22 05:45:34;;;;;;;1.13;0.80;;;;;;;15.82;72.95;98512.00;5068150;28;20036;-72
2022/05/22 05:47:59;;;;;;;3.83;0.95;;;;;;;15.54;71.89;98511.44;5054030;28;20029;-72
2022/05/22 05:50:26;;;;;;;1.02;0.90;;;;;;;16.06;70.87;98513.63;5054643;28;20031;-72
2022/05/22 05:52:56;;;;;;;2.17;1.13;;;;;;;16.32;70.19;98523.09;5067857;28;20050;-72
2022/05/22 05:55:24;;;;;;;0.75;0.75;;;;;;;15.84;74.59;98519.88;5068282;28;20059;-72
2022/05/22 05:57:50;;;;;;;1.30;0.98;;;;;;;16.11;74.87;98518.72;5060807;28;20053;-72
2022/05/22 06:00:18;;;;;;;1.73;0.75;;;;;;;16.43;72.80;98528.84;5048925;28;20091;-72
2022/05/22 06:02:43;;;;;;;1.30;1.02;;;;;;;15.74;73.12;98514.13;5054792;28;20273;-72
2022/05/22 06:05:13;;;;;;;1.55;0.90;;;;;;;16.24;73.46;98520.81;5057208;28;20013;-72
2022/05/22 06:07:38;;;;;;;2.00;1.02;;;;;;;16.69;71.57;98521.44;5049786;28;20182;-72
2022/05/22 06:10:09;;;;;;;1.13;0.88;;;;;;;16.57;74.16;98519.31;5066980;28;20070;-72
2022/05/22 06:12:34;;;;;;;0.98;0.80;;;;;;;16.60;74.39;98518.31;5048748;28;20029;-72
2022/05/22 06:15:00;;;;;;;1.73;0.95;;;;;;;16.83;72.92;98534.94;5062907;28;20071;-71
2022/05/22 06:17:36;;;;;;;3.40;1.27;;;;;;;16.63;73.02;98524.38;5066015;28;20348;-71
2022/05/22 06:20:06;;;;;;;1.63;1.27;;;;;;;16.11;74.12;98518.72;5048100;28;20025;-71
2022/05/22 06:22:34;;;;;;;2.05;1.23;;;;;;;16.51;75.53;98519.59;5055189;28;20024;-71
2022/05/22 06:24:59;;;;;;;1.60;1.25;;;;;;;16.18;75.58;98510.44;5053043;28;20017;-72
2022/05/22 06:27:25;;;;;;;1.98;1.38;;;;;;;15.78;76.78;98521.00;5058617;28;20054;-72
2022/05/22 06:29:51;;;;;;;2.45;1.38;;;;;;;16.03;77.85;98519.06;5055420;28;20088;-71
2022/05/22 06:32:19;;;;;;;4.30;1.45;;;;;;;16.47;76.32;98502.06;5048130;28;20336;-71
2022/05/22 06:34:47;;;;;;;2.35;1.33;;;;;;;16.22;78.30;98506.72;5065300;28;20016;-71
2022/05/22 06:37:16;;;;;;;2.95;1.70;;;;;;;16.51;76.71;98508.97;5067257;28;20082;-71
2022/05/22 06:39:50;;;;;;;2.42;1.55;;;;;;;17.22;74.97;98516.28;5066914;28;20043;-71
2022/05/22 06:42:30;;;;;;;2.50;1.27;;;;;;;17.05;75.98;98511.75;5056778;28;20025;-71
2022/05/22 06:44:59;;;;;;;3.78;1.83;;;;;;;18.10;73.46;98520.75;5048886;28;20036;-71
2022/05/22 06:47:27;;;;;;;2.25;1.70;;;;;;;18.74;71.37;98508.47;5047584;28;20217;-71
2022/05/22 06:49:52;;;;;;;3.10;1.50;;;;;;;19.18;68.51;98514.91;5058807;28;20060;-71
2022/05/22 06:52:18;;;;;;;1.33;1.13;;;;;;;18.91;69.81;98511.09;5065991;28;20043;-71
2022/05/22 06:54:44;;;;;;;3.97;1.58;;;;;;;19.34;69.25;98499.81;5060075;28;20024;-71
2022/05/22 06:57:09;;;;;;;3.83;1.50;;;;;;;19.65;68.56;98504.25;5062046;28;20021;-71
2022/05/22 06:59:35;;;;;;;3.10;1.58;;;;;;;20.54;66.29;98507.78;5058387;28;20025;-72
2022/05/22 07:02:02;;;;;;;5.57;1.63;;;;;;;20.22;66.04;98501.69;5056493;28;20062;-71
2022/05/22 07:04:29;;;;;;;1.80;1.30;;;;;;;20.57;66.02;98503.09;5053529;28;20022;-71
2022/05/22 07:06:54;;;;;;;2.78;1.75;;;;;;;21.80;62.24;98510.31;5060983;28;20033;-72
2022/05/22 07:09:20;;;;;;;2.80;1.42;;;;;;;21.71;60.80;98510.06;5066501;28;20035;-71
2022/05/22 07:11:45;;;;;;;2.50;1.40;;;;;;;22.27;60.99;98504.47;5066290;28;20082;-71
2022/05/22 07:14:16;;;;;;;2.10;1.60;;;;;;;22.84;58.69;98500.44;5065351;28;20023;-72
2022/05/22 07:16:42;;;;;;;4.05;1.60;;;;;;;22.97;58.69;98490.56;5046050;28;20034;-72
2022/05/22 07:19:10;;;;;;;5.15;1.75;;;;;;;23.18;56.55;98497.06;5052355;28;20035;-71
2022/05/22 07:21:35;;;;;;;5.13;1.90;;;;;;;23.63;55.55;98501.78;5063765;28;20092;-71
2022/05/22 07:24:00;;;;;;;2.00;1.40;;;;;;;23.97;54.59;98495.66;5066036;28;20186;-71
2022/05/22 07:26:27;;;;;;;1.88;1.38;;;;;;;24.01;54.39;98488.22;5064450;28;20324;-71
2022/05/22 07:28:53;;;;;;;4.05;1.33;;;;;;;24.49;53.60;98488.00;5064217;28;20025;-71
2022/05/22 07:31:21;;;;;;;3.50;1.77;;;;;;;23.54;54.20;98480.97;5064387;28;20071;-70
2022/05/22 07:33:47;;;;;;;3.63;1.67;;;;;;;23.43;54.97;98478.22;5046879;28;20040;-71
2022/05/22 07:36:13;;;;;;;5.07;1.40;;;;;;;24.56;52.89;98483.88;5044848;28;20025;-70
2022/05/22 07:38:39;;;;;;;4.55;1.50;;;;;;;23.58;53.99;98471.75;5044812;28;20094;-70
2022/05/22 07:41:05;;;;;;;2.30;1.42;;;;;;;23.79;54.67;98475.50;5044763;28;20047;-69
2022/05/22 07:43:30;;;;;;;3.55;1.50;;;;;;;23.62;54.57;98473.22;5044471;28;20332;-70
2022/05/22 07:45:56;;;;;;;2.85;1.35;;;;;;;23.48;55.84;98470.72;5044553;28;20313;-70
2022/05/22 07:48:21;;;;;;;2.35;1.17;;;;;;;24.63;53.11;98477.03;5043999;28;20136;-70
2022/05/22 07:50:54;;;;;;;2.92;1.30;;;;;;;24.12;53.88;98466.75;5044551;28;20040;-71
2022/05/22 07:53:19;;;;;;;4.63;1.58;;;;;;;25.10;52.62;98479.53;5046711;28;20033;-71
2022/05/22 07:55:45;;;;;;;1.27;0.98;;;;;;;25.56;52.26;98470.44;5047174;28;20033;-70
2022/05/22 07:58:10;;;;;;;2.10;1.50;;;;;;;25.17;52.66;98469.09;5062179;28;20024;-69
2022/05/22 08:00:37;;;;;;;3.63;1.50;;;;;;;25.99;51.41;98457.81;5059515;28;20379;-68
2022/05/22 08:03:13;;;;;;;2.95;1.30;;;;;;;26.26;49.95;98450.09;5052551;28;20039;-69
2022/05/22 08:05:39;;;;;;;2.95;1.20;;;;;;;26.61;48.96;98456.00;5044233;28;20024;-69
2022/05/22 08:08:05;;;;;;;4.85;1.42;;;;;;;27.18;46.30;98450.91;5055580;28;20040;-72
2022/05/22 08:10:31;;;;;;;3.50;1.23;;;;;;;26.89;45.38;98444.53;5056906;28;20025;-72
2022/05/22 08:12:57;;;;;;;2.90;1.00;;;;;;;27.63;45.55;98448.59;5058936;28;20025;-71
2022/05/22 08:15:24;;;;;;;2.78;1.30;;;;;;;27.74;47.12;98448.50;5054390;28;20317;-71
2022/05/22 08:17:50;;;;;;;7.15;1.38;;;;;;;27.94;43.46;98451.09;5056614;28;20025;-71
2022/05/22 08:20:19;;;;;;;1.73;1.33;;;;;;;28.28;42.77;98441.53;5063818;28;20066;-72
2022/05/22 08:22:45;;;;;;;2.00;0.85;;;;;;;27.94;42.83;98440.28;5064582;28;20024;-72
2022/05/22 08:25:14;;;;;;;2.58;1.08;;;;;;;27.92;43.25;98442.28;5064590;28;20221;-72
2022/05/22 08:27:40;;;;;;;2.65;0.93;;;;;;;28.09;40.49;98438.00;5064544;28;20029;-72
2022/05/22 08:30:06;;;;;;;1.10;0.77;;;;;;;28.03;39.69;98427.75;5064430;28;20020;-72
2022/05/22 08:32:36;;;;;;;2.05;0.82;;;;;;;27.91;41.04;98442.41;5064376;28;20217;-72
2022/05/22 08:35:02;;;;;;;3.80;1.00;;;;;;;28.39;38.51;98425.16;5064265;28;20028;-72
2022/05/22 08:37:28;;;;;;;1.75;0.65;;;;;;;28.63;38.86;98428.25;5064307;28;20092;-72
2022/05/22 08:39:53;;;;;;;2.10;0.80;;;;;;;28.58;37.28;98422.44;5064275;28;20020;-72
2022/05/22 08:42:25;;;;;;;2.58;0.85;;;;;;;28.25;40.04;98428.28;5064209;28;20313;-72
2022/05/22 08:44:55;;;;;;;3.30;0.80;;;;;;;28.18;39.49;98415.47;5064196;28;20317;-72
2022/05/22 08:47:37;;;;;;;2.55;1.05;;;;;;;28.51;36.80;98417.75;5064121;28;20224;-72
2022/05/22 08:50:04;;;;;;;;;;;;;;;28.63;36.79;98422.81;5064417;28;20398;-71
2022/05/22 08:52:41;;;;;;;3.03;0.90;;;;;;;28.53;35.79;98415.72;5063992;28;20109;-72
2022/05/22 08:55:21;;;;;;;2.67;0.90;;;;;;;28.53;37.76;98421.13;5063943;28;20078;-72
2022/05/22 09:00:37;;;;;;;1.25;0.85;;;;;;;28.31;38.08;98410.63;5063975;28;20227;-72
2022/05/22 09:03:18;;;;;;;1.50;0.90;;;;;;;27.81;36.77;98401.78;5063897;28;20024;-72
2022/05/22 09:05:47;;;;;;;4.35;0.95;;;;;;;26.95;37.32;98407.00;5063396;28;20024;-72
2022/05/22 09:08:23;;;;;;;1.25;0.60;;;;;;;27.17;39.62;98395.97;5063887;28;20040;-72
2022/05/22 09:11:05;;;;;;;1.30;0.65;;;;;;;27.47;36.89;98391.50;5063904;28;20074;-72
2022/05/22 09:13:39;;;;;;;1.45;0.77;;;;;;;28.51;34.73;98401.50;5063776;28;20043;-72
2022/05/22 09:16:33;;;;;;;2.75;0.73;;;;;;;27.78;36.70;98391.28;5063805;28;20033;-72
2022/05/22 09:18:58;;;;;;;0.82;0.52;;;;;;;28.24;35.42;98394.09;5063770;28;20025;-72
2022/05/22 09:21:46;;;;;;;1.63;0.70;;;;;;;28.22;35.99;98396.09;5063775;28;20201;-72
2022/05/22 09:24:42;;;;;;;0.77;0.57;;;;;;;28.43;35.11;98394.06;5063725;28;20021;-72
2022/05/22 09:27:11;;;;;;;1.92;0.70;;;;;;;28.57;35.09;98400.91;5063853;28;20092;-72
2022/05/22 09:29:39;;;;;;;4.88;0.80;;;;;;;28.32;36.27;98386.09;5063744;28;20025;-72
2022/05/22 09:32:33;;;;;;;1.27;0.70;;;;;;;27.66;36.88;98380.72;5063722;28;20055;-72
2022/05/22 09:35:08;;;;;;;1.02;0.80;;;;;;;26.67;38.89;98380.72;5063584;28;20224;-71
2022/05/22 09:38:01;;;;;;;2.33;0.98;;;;;;;27.89;37.05;98383.03;5063637;28;20020;-72
2022/05/22 09:40:32;;;;;;;5.60;0.80;;;;;;;28.49;33.80;98377.25;5063626;28;20035;-72
2022/05/22 09:43:21;;;;;;;1.97;0.80;;;;;;;28.41;35.43;98385.22;5063611;28;20062;-72
2022/05/22 09:46:02;;;;;;;2.15;0.90;;;;;;;27.63;35.03;98354.81;5063536;28;20021;-72
2022/05/22 09:48:45;;;;;;;2.00;0.77;;;;;;;28.13;36.94;98364.50;5063382;28;20078;-72
2022/05/22 09:51:23;;;;;;;1.55;0.85;;;;;;;27.83;36.99;98351.09;5063535;28;20025;-72
2022/05/22 09:54:01;;;;;;;4.28;1.05;;;;;;;27.74;37.12;98351.97;5063493;28;20031;-72
2022/05/22 09:57:01;;;;;;;1.90;0.80;;;;;;;28.17;38.20;98355.09;5063430;28;20216;-72
2022/05/22 09:59:36;;;;;;;1.17;0.70;;;;;;;28.24;35.31;98350.78;5044344;28;20071;-72
2022/05/22 10:02:11;;;;;;;2.30;0.90;;;;;;;28.53;37.92;98345.31;5063326;28;20031;-72
2022/05/22 10:05:04;;;;;;;3.45;0.80;;;;;;;28.67;36.43;98344.84;5063502;28;20024;-72
2022/05/22 10:07:45;;;;;;;1.45;0.80;;;;;;;28.90;37.61;98333.47;5063350;28;20083;-72
2022/05/22 10:10:29;;;;;;;5.82;1.00;;;;;;;28.66;35.18;98330.44;5063610;28;20025;-72
2022/05/22 10:13:23;;;;;;;6.05;0.98;;;;;;;28.75;34.39;98329.53;5063266;28;20324;-72
2022/05/22 10:16:03;;;;;;;2.22;0.85;;;;;;;27.93;35.15;98327.63;5063826;28;20028;-72
2022/05/22 10:18:44;;;;;;;3.15;0.95;;;;;;;27.27;35.90;98314.94;5066896;28;20092;-72
2022/05/22 10:21:47;;;;;;;2.43;1.20;;;;;;;27.42;34.44;98297.31;5066967;28;20079;-72
2022/05/22 10:24:25;;;;;;;1.77;0.88;;;;;;;27.29;34.29;98296.75;5066885;28;20047;-72
2022/05/22 10:27:24;;;;;;;2.63;0.63;;;;;;;27.48;36.36;98294.03;5066817;28;20021;-72
2022/05/22 10:30:08;;;;;;;2.85;0.60;;;;;;;27.36;33.54;98297.06;5066668;28;20044;-72
2022/05/22 10:32:44;;;;;;;1.88;0.70;;;;;;;27.36;32.95;98287.06;5066673;28;20354;-72
2022/05/22 10:35:34;;;;;;;2.55;0.82;;;;;;;27.58;35.16;98292.19;5066554;28;20058;-72
2022/05/22 10:38:29;;;;;;;2.25;0.55;;;;;;;27.66;31.86;98295.03;5066545;28;20025;-72
2022/05/22 10:43:44;;;;;;;1.20;0.50;;;;;;;27.83;30.32;98290.72;5066528;28;20232;-72
2022/05/22 10:46:10;;;;;;;1.65;0.65;;;;;;;27.10;31.94;98277.78;5066397;28;20023;-72
2022/05/22 10:48:47;;;;;;;1.23;0.60;;;;;;;27.35;30.78;98269.16;5066317;28;20037;-72
2022/05/22 10:51:22;;;;;;;2.05;0.65;;;;;;;27.66;32.27;98273.41;5066290;28;20309;-72
2022/05/22 10:53:52;;;;;;;3.33;0.90;;;;;;;27.18;30.03;98257.16;5066246;28;20028;-72
2022/05/22 10:56:26;;;;;;;1.65;0.47;;;;;;;27.42;33.68;98259.47;5066143;28;20032;-72
2022/05/22 10:59:00;;;;;;;1.27;0.70;;;;;;;27.21;33.02;98256.03;5066145;28;20027;-72
2022/05/22 11:01:28;;;;;;;2.25;0.85;;;;;;;27.41;33.15;98263.19;5066113;28;20029;-72
2022/05/22 11:04:09;;;;;;;2.17;0.80;;;;;;;27.69;32.80;98265.00;5065994;28;20047;-72
2022/05/22 11:06:50;;;;;;;1.02;0.73;;;;;;;27.58;33.43;98270.56;5066021;28;20098;-72
2022/05/22 11:09:24;;;;;;;2.45;0.70;;;;;;;28.13;33.97;98275.19;5065993;28;20075;-72
2022/05/22 11:11:49;;;;;;;1.67;0.52;;;;;;;28.18;35.37;98278.28;5065976;28;20359;-72
2022/05/22 11:14:20;;;;;;;3.50;0.80;;;;;;;28.04;33.48;98273.38;5065875;28;20096;-72
2022/05/22 11:16:47;;;;;;;2.05;0.77;;;;;;;28.27;35.84;98282.81;5065900;28;20088;-72
2022/05/22 11:19:19;;;;;;;2.03;0.80;;;;;;;27.97;34.17;98269.50;5065833;28;20027;-72
2022/05/22 11:22:31;;;;;;;1.30;0.68;;;;;;;28.13;34.49;98261.66;5065778;28;20220;-72
2022/05/22 11:25:15;;;;;;;0.70;0.55;;;;;;;27.54;36.57;98257.47;5065758;28;20021;-72
2022/05/22 11:28:04;;;;;;;1.15;0.70;;;;;;;27.27;38.12;98248.25;5065112;28;20201;-72
2022/05/22 11:30:32;;;;;;;1.40;0.60;;;;;;;27.24;38.10;98239.59;5065558;28;20020;-72
2022/05/22 11:33:19;;;;;;;3.08;0.60;;;;;;;27.29;37.72;98237.28;5065587;28;20360;-72
2022/05/22 11:35:55;;;;;;;3.03;0.73;;;;;;;27.03;37.11;98236.13;5065467;28;20021;-72
2022/05/22 11:38:42;;;;;;;3.47;0.70;;;;;;;26.66;34.86;98226.94;5065479;28;20253;-72
2022/05/22 11:41:13;;;;;;;3.70;0.70;;;;;;;26.28;36.77;98213.31;5065427;28;20021;-72
2022/05/22 11:43:57;;;;;;;3.65;0.60;;;;;;;25.90;38.29;98210.44;5065408;28;20032;-72
2022/05/22 11:46:44;;;;;;;1.33;0.70;;;;;;;26.02;37.25;98201.28;5065248;28;20025;-72
2022/05/22 11:49:22;;;;;;;2.30;0.90;;;;;;;25.95;38.34;98200.97;5065031;28;20053;-72
2022/05/22 11:55:31;;;;;;;1.40;0.68;;;;;;;25.65;36.59;98189.31;5065094;28;20031;-72
2022/05/22 11:58:06;;;;;;;2.72;0.63;;;;;;;25.09;38.39;98181.53;5065075;28;20039;-72
2022/05/22 12:00:49;;;;;;;0.73;0.50;;;;;;;24.90;37.24;98177.84;5065001;28;20024;-72
2022/05/22 12:03:35;;;;;;;0.73;0.52;;;;;;;25.06;38.66;98181.78;5065144;28;20071;-72
2022/05/22 12:06:25;;;;;;;3.10;0.77;;;;;;;24.89;35.41;98178.81;5064883;28;20216;-72
2022/05/22 12:09:05;;;;;;;1.42;0.75;;;;;;;24.53;38.84;98171.09;5064867;28;20347;-72